sensor_id;sensor_type;location;lat;lon;timestamp;P1;durP1;ratioP1;P2;durP2;ratioP2
69203;SDS011;56317;27.658;85.326;2022-08-01T00:01:38;8.55;;;3.78;;
69203;SDS011;56317;27.658;85.326;2022-08-01T00:04:05;6.82;;;3.95;;
69203;SDS011;56317;27.658;85.326;2022-08-01T00:06:32;7.43;;;4.00;;
69203;SDS011;56317;27.658;85.326;2022-08-01T00:08:59;7.40;;;4.40;;
69203;SDS011;56317;27.658;85.326;2022-08-01T00:11:26;7.95;;;4.47;;
69203;SDS011;56317;27.658;85.326;2022-08-01T00:13:53;10.30;;;4.40;;
69203;SDS011;56317;27.658;85.326;2022-08-01T00:16:21;9.52;;;4.32;;
69203;SDS011;56317;27.658;85.326;2022-08-01T00:18:50;8.10;;;4.85;;
69203;SDS011;56317;27.658;85.326;2022-08-01T00:21:18;8.63;;;4.10;;
69203;SDS011;56317;27.658;85.326;2022-08-01T00:23:45;7.82;;;3.58;;
69203;SDS011;56317;27.658;85.326;2022-08-01T00:26:13;6.47;;;3.67;;
69203;SDS011;56317;27.658;85.326;2022-08-01T00:28:40;5.95;;;3.75;;
69203;SDS011;56317;27.658;85.326;2022-08-01T00:31:11;7.35;;;4.18;;
69203;SDS011;56317;27.658;85.326;2022-08-01T00:33:38;7.85;;;4.18;;
69203;SDS011;56317;27.658;85.326;2022-08-01T00:36:05;8.93;;;4.55;;
69203;SDS011;56317;27.658;85.326;2022-08-01T00:38:32;8.85;;;5.28;;
69203;SDS011;56317;27.658;85.326;2022-08-01T00:40:59;7.95;;;4.88;;
69203;SDS011;56317;27.658;85.326;2022-08-01T00:43:26;8.27;;;5.18;;
69203;SDS011;56317;27.658;85.326;2022-08-01T00:45:53;9.80;;;5.18;;
69203;SDS011;56317;27.658;85.326;2022-08-01T00:48:20;9.13;;;5.40;;
69203;SDS011;56317;27.658;85.326;2022-08-01T00:50:47;9.65;;;5.97;;
69203;SDS011;56317;27.658;85.326;2022-08-01T00:53:15;10.15;;;6.43;;
69203;SDS011;56317;27.658;85.326;2022-08-01T00:55:42;8.85;;;6.20;;
69203;SDS011;56317;27.658;85.326;2022-08-01T00:58:09;12.25;;;8.30;;
69203;SDS011;56317;27.658;85.326;2022-08-01T01:00:36;17.05;;;11.27;;
69203;SDS011;56317;27.658;85.326;2022-08-01T01:03:04;15.63;;;11.25;;
69203;SDS011;56317;27.658;85.326;2022-08-01T01:05:32;11.07;;;6.43;;
69203;SDS011;56317;27.658;85.326;2022-08-01T01:08:13;7.72;;;5.40;;
69203;SDS011;56317;27.658;85.326;2022-08-01T01:10:48;8.80;;;5.70;;
69203;SDS011;56317;27.658;85.326;2022-08-01T01:13:31;8.00;;;5.38;;
69203;SDS011;56317;27.658;85.326;2022-08-01T01:16:08;11.50;;;6.47;;
69203;SDS011;56317;27.658;85.326;2022-08-01T01:18:49;10.75;;;7.05;;
69203;SDS011;56317;27.658;85.326;2022-08-01T01:27:18;9.52;;;4.82;;
69203;SDS011;56317;27.658;85.326;2022-08-01T01:30:00;8.23;;;4.22;;
69203;SDS011;56317;27.658;85.326;2022-08-01T01:32:32;6.57;;;4.15;;
69203;SDS011;56317;27.658;85.326;2022-08-01T01:35:14;9.05;;;4.32;;
69203;SDS011;56317;27.658;85.326;2022-08-01T01:37:56;7.55;;;4.57;;
69203;SDS011;56317;27.658;85.326;2022-08-01T01:40:31;7.55;;;5.00;;
69203;SDS011;56317;27.658;85.326;2022-08-01T01:42:59;9.30;;;5.45;;
69203;SDS011;56317;27.658;85.326;2022-08-01T01:45:27;11.13;;;5.85;;
69203;SDS011;56317;27.658;85.326;2022-08-01T01:47:55;10.77;;;6.13;;
69203;SDS011;56317;27.658;85.326;2022-08-01T01:50:24;8.50;;;5.60;;
69203;SDS011;56317;27.658;85.326;2022-08-01T01:52:52;14.38;;;7.60;;
69203;SDS011;56317;27.658;85.326;2022-08-01T01:55:21;9.85;;;6.82;;
69203;SDS011;56317;27.658;85.326;2022-08-01T01:57:49;13.82;;;7.00;;
69203;SDS011;56317;27.658;85.326;2022-08-01T02:00:17;11.95;;;7.25;;
69203;SDS011;56317;27.658;85.326;2022-08-01T02:02:45;8.85;;;6.00;;
69203;SDS011;56317;27.658;85.326;2022-08-01T02:05:13;10.40;;;6.38;;
69203;SDS011;56317;27.658;85.326;2022-08-01T02:07:41;10.52;;;6.63;;
69203;SDS011;56317;27.658;85.326;2022-08-01T02:10:09;8.85;;;6.55;;
69203;SDS011;56317;27.658;85.326;2022-08-01T02:12:38;11.00;;;7.07;;
69203;SDS011;56317;27.658;85.326;2022-08-01T02:15:08;10.70;;;7.63;;
69203;SDS011;56317;27.658;85.326;2022-08-01T02:17:37;11.77;;;7.97;;
69203;SDS011;56317;27.658;85.326;2022-08-01T02:20:09;14.73;;;8.68;;
69203;SDS011;56317;27.658;85.326;2022-08-01T02:22:40;14.63;;;9.10;;
69203;SDS011;56317;27.658;85.326;2022-08-01T02:25:50;12.55;;;9.27;;
69203;SDS011;56317;27.658;85.326;2022-08-01T02:28:30;13.05;;;7.93;;
69203;SDS011;56317;27.658;85.326;2022-08-01T02:31:02;13.10;;;8.00;;
69203;SDS011;56317;27.658;85.326;2022-08-01T02:33:43;16.50;;;9.55;;
69203;SDS011;56317;27.658;85.326;2022-08-01T02:36:14;14.03;;;8.53;;
69203;SDS011;56317;27.658;85.326;2022-08-01T02:38:44;9.97;;;5.60;;
69203;SDS011;56317;27.658;85.326;2022-08-01T02:41:19;6.95;;;4.72;;
69203;SDS011;56317;27.658;85.326;2022-08-01T02:43:48;7.68;;;4.63;;
69203;SDS011;56317;27.658;85.326;2022-08-01T02:46:20;8.68;;;4.32;;
69203;SDS011;56317;27.658;85.326;2022-08-01T02:49:09;6.88;;;4.05;;
69203;SDS011;56317;27.658;85.326;2022-08-01T02:51:38;8.57;;;5.55;;
69203;SDS011;56317;27.658;85.326;2022-08-01T02:54:07;8.60;;;5.32;;
69203;SDS011;56317;27.658;85.326;2022-08-01T02:56:35;12.73;;;6.53;;
69203;SDS011;56317;27.658;85.326;2022-08-01T02:59:07;7.57;;;5.60;;
69203;SDS011;56317;27.658;85.326;2022-08-01T03:01:39;9.55;;;6.28;;
69203;SDS011;56317;27.658;85.326;2022-08-01T03:04:08;10.32;;;6.60;;
69203;SDS011;56317;27.658;85.326;2022-08-01T03:06:36;11.10;;;7.88;;
69203;SDS011;56317;27.658;85.326;2022-08-01T03:09:04;12.05;;;8.57;;
69203;SDS011;56317;27.658;85.326;2022-08-01T03:11:33;13.40;;;8.50;;
69203;SDS011;56317;27.658;85.326;2022-08-01T03:14:02;14.02;;;9.73;;
69203;SDS011;56317;27.658;85.326;2022-08-01T03:16:33;15.18;;;10.48;;
69203;SDS011;56317;27.658;85.326;2022-08-01T03:19:03;12.70;;;9.20;;
69203;SDS011;56317;27.658;85.326;2022-08-01T03:21:33;13.90;;;10.48;;
69203;SDS011;56317;27.658;85.326;2022-08-01T03:24:02;14.68;;;10.45;;
69203;SDS011;56317;27.658;85.326;2022-08-01T03:26:31;16.42;;;11.70;;
69203;SDS011;56317;27.658;85.326;2022-08-01T03:29:04;13.18;;;9.77;;
69203;SDS011;56317;27.658;85.326;2022-08-01T03:31:36;14.38;;;8.05;;
69203;SDS011;56317;27.658;85.326;2022-08-01T03:34:10;13.90;;;8.82;;
69203;SDS011;56317;27.658;85.326;2022-08-01T03:36:40;13.63;;;8.63;;
69203;SDS011;56317;27.658;85.326;2022-08-01T03:39:48;12.02;;;8.43;;
69203;SDS011;56317;27.658;85.326;2022-08-01T03:42:52;12.02;;;6.22;;
69203;SDS011;56317;27.658;85.326;2022-08-01T03:45:23;10.02;;;6.55;;
69203;SDS011;56317;27.658;85.326;2022-08-01T03:47:55;9.90;;;6.35;;
69203;SDS011;56317;27.658;85.326;2022-08-01T03:50:27;6.28;;;4.10;;
69203;SDS011;56317;27.658;85.326;2022-08-01T03:53:00;7.63;;;5.43;;
69203;SDS011;56317;27.658;85.326;2022-08-01T03:55:29;7.82;;;3.95;;
69203;SDS011;56317;27.658;85.326;2022-08-01T03:57:59;6.97;;;4.75;;
69203;SDS011;56317;27.658;85.326;2022-08-01T04:00:26;8.60;;;5.47;;
69203;SDS011;56317;27.658;85.326;2022-08-01T04:02:54;8.10;;;5.22;;
69203;SDS011;56317;27.658;85.326;2022-08-01T04:05:22;8.00;;;4.65;;
69203;SDS011;56317;27.658;85.326;2022-08-01T04:07:50;6.72;;;3.80;;
69203;SDS011;56317;27.658;85.326;2022-08-01T04:10:21;6.82;;;4.10;;
69203;SDS011;56317;27.658;85.326;2022-08-01T04:12:49;6.13;;;3.42;;
69203;SDS011;56317;27.658;85.326;2022-08-01T04:15:17;7.43;;;5.35;;
69203;SDS011;56317;27.658;85.326;2022-08-01T04:17:45;9.32;;;6.32;;
69203;SDS011;56317;27.658;85.326;2022-08-01T04:20:13;9.00;;;5.82;;
69203;SDS011;56317;27.658;85.326;2022-08-01T04:22:41;5.57;;;3.05;;
69203;SDS011;56317;27.658;85.326;2022-08-01T04:28:02;6.00;;;3.53;;
69203;SDS011;56317;27.658;85.326;2022-08-01T04:30:33;6.25;;;3.75;;
69203;SDS011;56317;27.658;85.326;2022-08-01T04:33:04;6.75;;;3.60;;
69203;SDS011;56317;27.658;85.326;2022-08-01T04:35:34;6.75;;;3.25;;
69203;SDS011;56317;27.658;85.326;2022-08-01T04:38:05;8.23;;;5.07;;
69203;SDS011;56317;27.658;85.326;2022-08-01T04:40:34;7.57;;;5.22;;
69203;SDS011;56317;27.658;85.326;2022-08-01T04:43:02;9.15;;;6.85;;
69203;SDS011;56317;27.658;85.326;2022-08-01T04:45:29;11.27;;;6.88;;
69203;SDS011;56317;27.658;85.326;2022-08-01T04:47:58;10.10;;;6.60;;
69203;SDS011;56317;27.658;85.326;2022-08-01T04:50:26;12.18;;;6.15;;
69203;SDS011;56317;27.658;85.326;2022-08-01T04:52:54;8.95;;;5.70;;
69203;SDS011;56317;27.658;85.326;2022-08-01T04:55:21;8.00;;;5.55;;
69203;SDS011;56317;27.658;85.326;2022-08-01T04:57:48;5.28;;;3.05;;
69203;SDS011;56317;27.658;85.326;2022-08-01T05:00:15;7.22;;;4.30;;
69203;SDS011;56317;27.658;85.326;2022-08-01T05:02:43;5.32;;;3.75;;
69203;SDS011;56317;27.658;85.326;2022-08-01T05:05:12;4.05;;;2.65;;
69203;SDS011;56317;27.658;85.326;2022-08-01T05:07:41;4.25;;;2.50;;
69203;SDS011;56317;27.658;85.326;2022-08-01T05:10:09;6.07;;;3.00;;
69203;SDS011;56317;27.658;85.326;2022-08-01T05:12:36;3.55;;;2.25;;
69203;SDS011;56317;27.658;85.326;2022-08-01T05:15:03;3.88;;;2.40;;
69203;SDS011;56317;27.658;85.326;2022-08-01T05:17:32;7.57;;;4.00;;
69203;SDS011;56317;27.658;85.326;2022-08-01T05:19:59;6.85;;;3.67;;
69203;SDS011;56317;27.658;85.326;2022-08-01T05:22:27;7.18;;;4.63;;
69203;SDS011;56317;27.658;85.326;2022-08-01T05:24:54;11.70;;;7.32;;
69203;SDS011;56317;27.658;85.326;2022-08-01T05:27:22;10.50;;;7.13;;
69203;SDS011;56317;27.658;85.326;2022-08-01T05:29:49;9.90;;;8.27;;
69203;SDS011;56317;27.658;85.326;2022-08-01T05:32:16;10.20;;;8.02;;
69203;SDS011;56317;27.658;85.326;2022-08-01T05:34:44;9.50;;;6.50;;
69203;SDS011;56317;27.658;85.326;2022-08-01T05:37:11;4.10;;;2.33;;
69203;SDS011;56317;27.658;85.326;2022-08-01T05:39:38;5.20;;;2.88;;
69203;SDS011;56317;27.658;85.326;2022-08-01T05:42:06;5.20;;;3.33;;
69203;SDS011;56317;27.658;85.326;2022-08-01T05:44:33;4.72;;;3.65;;
69203;SDS011;56317;27.658;85.326;2022-08-01T05:47:00;8.75;;;6.32;;
69203;SDS011;56317;27.658;85.326;2022-08-01T05:49:28;8.40;;;6.05;;
69203;SDS011;56317;27.658;85.326;2022-08-01T05:51:55;11.52;;;6.35;;
69203;SDS011;56317;27.658;85.326;2022-08-01T05:54:22;3.60;;;2.47;;
69203;SDS011;56317;27.658;85.326;2022-08-01T05:56:50;6.85;;;3.25;;
69203;SDS011;56317;27.658;85.326;2022-08-01T05:59:17;8.10;;;6.32;;
69203;SDS011;56317;27.658;85.326;2022-08-01T06:01:44;8.00;;;6.25;;
69203;SDS011;56317;27.658;85.326;2022-08-01T06:04:12;8.60;;;6.35;;
69203;SDS011;56317;27.658;85.326;2022-08-01T06:06:39;6.03;;;4.05;;
69203;SDS011;56317;27.658;85.326;2022-08-01T06:09:06;5.07;;;2.58;;
69203;SDS011;56317;27.658;85.326;2022-08-01T06:11:33;5.88;;;4.00;;
69203;SDS011;56317;27.658;85.326;2022-08-01T06:14:00;5.47;;;2.97;;
69203;SDS011;56317;27.658;85.326;2022-08-01T06:16:28;4.72;;;3.25;;
69203;SDS011;56317;27.658;85.326;2022-08-01T06:18:56;5.10;;;3.38;;
69203;SDS011;56317;27.658;85.326;2022-08-01T06:21:23;6.20;;;4.32;;
69203;SDS011;56317;27.658;85.326;2022-08-01T06:23:50;5.85;;;4.20;;
69203;SDS011;56317;27.658;85.326;2022-08-01T06:26:18;6.40;;;4.10;;
69203;SDS011;56317;27.658;85.326;2022-08-01T06:28:46;5.47;;;3.85;;
69203;SDS011;56317;27.658;85.326;2022-08-01T06:31:22;5.40;;;4.05;;
69203;SDS011;56317;27.658;85.326;2022-08-01T06:33:49;8.68;;;6.15;;
69203;SDS011;56317;27.658;85.326;2022-08-01T06:36:16;6.70;;;4.78;;
69203;SDS011;56317;27.658;85.326;2022-08-01T06:38:43;5.65;;;3.90;;
69203;SDS011;56317;27.658;85.326;2022-08-01T06:41:10;8.23;;;4.30;;
69203;SDS011;56317;27.658;85.326;2022-08-01T06:43:37;5.57;;;3.80;;
69203;SDS011;56317;27.658;85.326;2022-08-01T06:46:04;4.82;;;3.42;;
69203;SDS011;56317;27.658;85.326;2022-08-01T06:48:32;5.13;;;3.10;;
69203;SDS011;56317;27.658;85.326;2022-08-01T06:51:00;4.30;;;2.80;;
69203;SDS011;56317;27.658;85.326;2022-08-01T06:53:37;5.05;;;1.60;;
69203;SDS011;56317;27.658;85.326;2022-08-01T06:56:04;2.13;;;0.70;;
69203;SDS011;56317;27.658;85.326;2022-08-01T06:58:34;4.22;;;1.38;;
69203;SDS011;56317;27.658;85.326;2022-08-01T07:01:03;3.22;;;0.98;;
69203;SDS011;56317;27.658;85.326;2022-08-01T07:03:34;10.32;;;1.73;;
69203;SDS011;56317;27.658;85.326;2022-08-01T07:06:02;8.63;;;1.67;;
69203;SDS011;56317;27.658;85.326;2022-08-01T07:08:29;3.65;;;1.48;;
69203;SDS011;56317;27.658;85.326;2022-08-01T07:10:57;3.30;;;1.30;;
69203;SDS011;56317;27.658;85.326;2022-08-01T07:13:26;4.05;;;1.67;;
69203;SDS011;56317;27.658;85.326;2022-08-01T07:15:53;3.22;;;1.38;;
69203;SDS011;56317;27.658;85.326;2022-08-01T07:18:29;4.65;;;1.77;;
69203;SDS011;56317;27.658;85.326;2022-08-01T07:20:59;5.18;;;1.35;;
69203;SDS011;56317;27.658;85.326;2022-08-01T07:23:26;3.53;;;1.55;;
69203;SDS011;56317;27.658;85.326;2022-08-01T07:25:53;1.20;;;1.00;;
69203;SDS011;56317;27.658;85.326;2022-08-01T07:28:24;3.75;;;1.80;;
69203;SDS011;56317;27.658;85.326;2022-08-01T07:30:52;6.00;;;1.52;;
69203;SDS011;56317;27.658;85.326;2022-08-01T07:33:25;3.08;;;1.65;;
69203;SDS011;56317;27.658;85.326;2022-08-01T07:35:56;3.38;;;1.80;;
69203;SDS011;56317;27.658;85.326;2022-08-01T07:38:26;6.00;;;2.70;;
69203;SDS011;56317;27.658;85.326;2022-08-01T07:40:53;5.10;;;2.35;;
69203;SDS011;56317;27.658;85.326;2022-08-01T07:43:20;5.25;;;2.67;;
69203;SDS011;56317;27.658;85.326;2022-08-01T07:45:48;5.15;;;2.55;;
69203;SDS011;56317;27.658;85.326;2022-08-01T07:48:15;7.35;;;3.10;;
69203;SDS011;56317;27.658;85.326;2022-08-01T07:50:44;6.18;;;3.28;;
69203;SDS011;56317;27.658;85.326;2022-08-01T07:53:11;7.47;;;3.30;;
69203;SDS011;56317;27.658;85.326;2022-08-01T07:55:38;5.95;;;3.08;;
69203;SDS011;56317;27.658;85.326;2022-08-01T07:58:05;7.03;;;3.17;;
69203;SDS011;56317;27.658;85.326;2022-08-01T08:00:33;6.72;;;3.00;;
69203;SDS011;56317;27.658;85.326;2022-08-01T08:03:00;7.32;;;4.07;;
69203;SDS011;56317;27.658;85.326;2022-08-01T08:05:27;11.20;;;4.97;;
69203;SDS011;56317;27.658;85.326;2022-08-01T08:08:14;10.52;;;5.43;;
69203;SDS011;56317;27.658;85.326;2022-08-01T08:10:43;7.13;;;5.18;;
69203;SDS011;56317;27.658;85.326;2022-08-01T08:13:11;7.30;;;4.78;;
69203;SDS011;56317;27.658;85.326;2022-08-01T08:15:38;11.00;;;6.13;;
69203;SDS011;56317;27.658;85.326;2022-08-01T08:18:05;10.35;;;6.47;;
69203;SDS011;56317;27.658;85.326;2022-08-01T08:20:33;7.32;;;4.75;;
69203;SDS011;56317;27.658;85.326;2022-08-01T08:23:00;9.07;;;6.38;;
69203;SDS011;56317;27.658;85.326;2022-08-01T08:25:47;7.60;;;4.82;;
69203;SDS011;56317;27.658;85.326;2022-08-01T08:28:14;9.15;;;6.32;;
69203;SDS011;56317;27.658;85.326;2022-08-01T08:30:41;10.07;;;5.53;;
69203;SDS011;56317;27.658;85.326;2022-08-01T08:33:08;8.50;;;5.20;;
69203;SDS011;56317;27.658;85.326;2022-08-01T08:35:42;9.17;;;5.20;;
69203;SDS011;56317;27.658;85.326;2022-08-01T08:38:09;9.65;;;6.88;;
69203;SDS011;56317;27.658;85.326;2022-08-01T08:40:36;9.30;;;6.13;;
69203;SDS011;56317;27.658;85.326;2022-08-01T08:43:04;9.10;;;6.18;;
69203;SDS011;56317;27.658;85.326;2022-08-01T08:45:32;9.50;;;6.18;;
69203;SDS011;56317;27.658;85.326;2022-08-01T08:47:59;11.82;;;6.78;;
69203;SDS011;56317;27.658;85.326;2022-08-01T08:50:28;7.50;;;5.57;;
69203;SDS011;56317;27.658;85.326;2022-08-01T08:52:55;8.27;;;5.45;;
69203;SDS011;56317;27.658;85.326;2022-08-01T08:55:24;9.48;;;5.40;;
69203;SDS011;56317;27.658;85.326;2022-08-01T08:57:54;11.07;;;7.68;;
69203;SDS011;56317;27.658;85.326;2022-08-01T09:00:22;12.05;;;7.05;;
69203;SDS011;56317;27.658;85.326;2022-08-01T09:02:50;7.97;;;3.85;;
69203;SDS011;56317;27.658;85.326;2022-08-01T09:05:22;4.57;;;2.60;;
69203;SDS011;56317;27.658;85.326;2022-08-01T09:07:53;6.85;;;3.05;;
69203;SDS011;56317;27.658;85.326;2022-08-01T09:10:20;9.68;;;3.63;;
69203;SDS011;56317;27.658;85.326;2022-08-01T09:15:40;9.65;;;3.67;;
69203;SDS011;56317;27.658;85.326;2022-08-01T09:18:25;6.03;;;2.70;;
69203;SDS011;56317;27.658;85.326;2022-08-01T09:21:11;5.95;;;2.80;;
69203;SDS011;56317;27.658;85.326;2022-08-01T09:23:45;7.70;;;4.38;;
69203;SDS011;56317;27.658;85.326;2022-08-01T09:28:43;10.25;;;6.00;;
69203;SDS011;56317;27.658;85.326;2022-08-01T09:31:12;9.80;;;4.93;;
69203;SDS011;56317;27.658;85.326;2022-08-01T09:36:52;4.57;;;2.17;;
69203;SDS011;56317;27.658;85.326;2022-08-01T09:39:27;3.58;;;1.50;;
69203;SDS011;56317;27.658;85.326;2022-08-01T09:42:19;2.97;;;1.27;;
69203;SDS011;56317;27.658;85.326;2022-08-01T09:44:48;3.20;;;1.67;;
69203;SDS011;56317;27.658;85.326;2022-08-01T09:47:16;3.00;;;1.90;;
69203;SDS011;56317;27.658;85.326;2022-08-01T09:49:52;4.05;;;1.83;;
69203;SDS011;56317;27.658;85.326;2022-08-01T09:52:22;5.78;;;2.85;;
69203;SDS011;56317;27.658;85.326;2022-08-01T09:57:22;9.77;;;4.68;;
69203;SDS011;56317;27.658;85.326;2022-08-01T09:59:51;11.82;;;5.80;;
69203;SDS011;56317;27.658;85.326;2022-08-01T10:05:04;6.85;;;3.08;;
69203;SDS011;56317;27.658;85.326;2022-08-01T10:07:36;3.90;;;2.65;;
69203;SDS011;56317;27.658;85.326;2022-08-01T10:10:22;2.28;;;1.50;;
69203;SDS011;56317;27.658;85.326;2022-08-01T10:12:49;3.40;;;1.67;;
69203;SDS011;56317;27.658;85.326;2022-08-01T10:15:19;2.00;;;1.23;;
69203;SDS011;56317;27.658;85.326;2022-08-01T10:17:51;2.95;;;1.30;;
69203;SDS011;56317;27.658;85.326;2022-08-01T10:20:21;3.40;;;1.80;;
69203;SDS011;56317;27.658;85.326;2022-08-01T10:22:53;4.22;;;2.15;;
69203;SDS011;56317;27.658;85.326;2022-08-01T10:25:22;2.00;;;1.25;;
69203;SDS011;56317;27.658;85.326;2022-08-01T10:27:52;4.28;;;2.40;;
69203;SDS011;56317;27.658;85.326;2022-08-01T10:30:23;2.30;;;1.38;;
69203;SDS011;56317;27.658;85.326;2022-08-01T10:32:54;3.33;;;1.90;;
69203;SDS011;56317;27.658;85.326;2022-08-01T10:35:21;3.55;;;1.63;;
69203;SDS011;56317;27.658;85.326;2022-08-01T10:37:49;6.55;;;1.73;;
69203;SDS011;56317;27.658;85.326;2022-08-01T10:40:22;3.50;;;1.73;;
69203;SDS011;56317;27.658;85.326;2022-08-01T10:42:49;4.03;;;2.20;;
69203;SDS011;56317;27.658;85.326;2022-08-01T10:45:17;5.97;;;2.92;;
69203;SDS011;56317;27.658;85.326;2022-08-01T10:53:18;5.90;;;2.38;;
69203;SDS011;56317;27.658;85.326;2022-08-01T11:01:18;10.55;;;5.47;;
69203;SDS011;56317;27.658;85.326;2022-08-01T11:04:07;10.23;;;5.55;;
69203;SDS011;56317;27.658;85.326;2022-08-01T11:06:39;8.35;;;4.97;;
69203;SDS011;56317;27.658;85.326;2022-08-01T11:11:58;5.25;;;2.70;;
69203;SDS011;56317;27.658;85.326;2022-08-01T11:14:29;3.97;;;2.30;;
69203;SDS011;56317;27.658;85.326;2022-08-01T11:17:16;4.38;;;1.88;;
69203;SDS011;56317;27.658;85.326;2022-08-01T11:20:14;4.13;;;2.00;;
69203;SDS011;56317;27.658;85.326;2022-08-01T11:30:52;5.97;;;2.22;;
69203;SDS011;56317;27.658;85.326;2022-08-01T11:38:43;4.03;;;2.17;;
69203;SDS011;56317;27.658;85.326;2022-08-01T11:41:13;4.28;;;2.20;;
69203;SDS011;56317;27.658;85.326;2022-08-01T11:57:18;10.13;;;4.20;;
69203;SDS011;56317;27.658;85.326;2022-08-01T11:59:48;13.35;;;5.22;;
69203;SDS011;56317;27.658;85.326;2022-08-01T12:02:27;13.80;;;4.03;;
69203;SDS011;56317;27.658;85.326;2022-08-01T12:05:00;9.82;;;3.78;;
69203;SDS011;56317;27.658;85.326;2022-08-01T12:07:29;10.63;;;4.07;;
69203;SDS011;56317;27.658;85.326;2022-08-01T12:15:16;12.10;;;5.70;;
69203;SDS011;56317;27.658;85.326;2022-08-01T12:17:48;19.02;;;5.07;;
69203;SDS011;56317;27.658;85.326;2022-08-01T12:20:20;14.70;;;5.40;;
69203;SDS011;56317;27.658;85.326;2022-08-01T12:22:55;9.63;;;4.65;;
69203;SDS011;56317;27.658;85.326;2022-08-01T12:25:24;12.75;;;5.72;;
69203;SDS011;56317;27.658;85.326;2022-08-01T12:27:51;9.70;;;4.97;;
69203;SDS011;56317;27.658;85.326;2022-08-01T12:30:19;14.45;;;5.85;;
69203;SDS011;56317;27.658;85.326;2022-08-01T12:32:52;14.70;;;5.45;;
69203;SDS011;56317;27.658;85.326;2022-08-01T12:35:21;14.77;;;6.15;;
69203;SDS011;56317;27.658;85.326;2022-08-01T12:37:50;17.70;;;5.88;;
69203;SDS011;56317;27.658;85.326;2022-08-01T12:42:58;12.43;;;5.97;;
69203;SDS011;56317;27.658;85.326;2022-08-01T12:45:28;10.40;;;4.82;;
69203;SDS011;56317;27.658;85.326;2022-08-01T12:47:59;14.50;;;5.65;;
69203;SDS011;56317;27.658;85.326;2022-08-01T12:50:31;14.98;;;5.55;;
69203;SDS011;56317;27.658;85.326;2022-08-01T12:53:05;27.73;;;8.93;;
69203;SDS011;56317;27.658;85.326;2022-08-01T12:55:33;17.85;;;7.32;;
69203;SDS011;56317;27.658;85.326;2022-08-01T12:58:17;23.92;;;7.35;;
69203;SDS011;56317;27.658;85.326;2022-08-01T13:00:46;18.75;;;8.45;;
69203;SDS011;56317;27.658;85.326;2022-08-01T13:03:28;14.15;;;6.93;;
69203;SDS011;56317;27.658;85.326;2022-08-01T13:05:56;23.02;;;8.48;;
69203;SDS011;56317;27.658;85.326;2022-08-01T13:08:31;18.63;;;7.43;;
69203;SDS011;56317;27.658;85.326;2022-08-01T13:11:03;19.58;;;8.38;;
69203;SDS011;56317;27.658;85.326;2022-08-01T13:13:41;19.23;;;10.15;;
69203;SDS011;56317;27.658;85.326;2022-08-01T13:16:09;20.48;;;9.65;;
69203;SDS011;56317;27.658;85.326;2022-08-01T13:18:37;19.13;;;8.40;;
69203;SDS011;56317;27.658;85.326;2022-08-01T13:21:14;16.42;;;9.35;;
69203;SDS011;56317;27.658;85.326;2022-08-01T13:24:02;23.95;;;11.77;;
69203;SDS011;56317;27.658;85.326;2022-08-01T13:29:06;21.08;;;11.05;;
69203;SDS011;56317;27.658;85.326;2022-08-01T13:31:35;23.23;;;11.38;;
69203;SDS011;56317;27.658;85.326;2022-08-01T13:34:03;26.55;;;11.32;;
69203;SDS011;56317;27.658;85.326;2022-08-01T13:36:30;27.27;;;12.50;;
69203;SDS011;56317;27.658;85.326;2022-08-01T13:38:58;23.50;;;13.00;;
69203;SDS011;56317;27.658;85.326;2022-08-01T13:41:44;36.47;;;15.50;;
69203;SDS011;56317;27.658;85.326;2022-08-01T13:44:12;22.05;;;12.05;;
69203;SDS011;56317;27.658;85.326;2022-08-01T13:46:40;26.20;;;13.38;;
69203;SDS011;56317;27.658;85.326;2022-08-01T13:49:09;18.90;;;10.52;;
69203;SDS011;56317;27.658;85.326;2022-08-01T13:51:37;24.27;;;10.52;;
69203;SDS011;56317;27.658;85.326;2022-08-01T13:54:05;23.88;;;10.60;;
69203;SDS011;56317;27.658;85.326;2022-08-01T13:56:33;16.30;;;8.70;;
69203;SDS011;56317;27.658;85.326;2022-08-01T13:59:01;23.48;;;9.60;;
69203;SDS011;56317;27.658;85.326;2022-08-01T14:01:28;19.08;;;8.30;;
69203;SDS011;56317;27.658;85.326;2022-08-01T14:03:55;19.65;;;10.13;;
69203;SDS011;56317;27.658;85.326;2022-08-01T14:06:22;20.60;;;10.43;;
69203;SDS011;56317;27.658;85.326;2022-08-01T14:08:49;21.48;;;10.55;;
69203;SDS011;56317;27.658;85.326;2022-08-01T14:11:16;25.38;;;10.93;;
69203;SDS011;56317;27.658;85.326;2022-08-01T14:13:44;20.42;;;9.68;;
69203;SDS011;56317;27.658;85.326;2022-08-01T14:16:11;21.52;;;9.65;;
69203;SDS011;56317;27.658;85.326;2022-08-01T14:18:38;22.13;;;10.25;;
69203;SDS011;56317;27.658;85.326;2022-08-01T14:21:06;18.40;;;9.43;;
69203;SDS011;56317;27.658;85.326;2022-08-01T14:23:36;21.13;;;9.45;;
69203;SDS011;56317;27.658;85.326;2022-08-01T14:26:03;22.08;;;8.73;;
69203;SDS011;56317;27.658;85.326;2022-08-01T14:28:30;18.45;;;8.18;;
69203;SDS011;56317;27.658;85.326;2022-08-01T14:30:58;15.18;;;7.05;;
69203;SDS011;56317;27.658;85.326;2022-08-01T14:33:26;14.77;;;7.70;;
69203;SDS011;56317;27.658;85.326;2022-08-01T14:35:53;17.17;;;8.63;;
69203;SDS011;56317;27.658;85.326;2022-08-01T14:38:21;11.90;;;6.30;;
69203;SDS011;56317;27.658;85.326;2022-08-01T14:40:49;14.98;;;6.53;;
69203;SDS011;56317;27.658;85.326;2022-08-01T14:43:17;15.27;;;6.95;;
69203;SDS011;56317;27.658;85.326;2022-08-01T14:45:44;12.48;;;6.28;;
69203;SDS011;56317;27.658;85.326;2022-08-01T14:48:16;14.98;;;7.13;;
69203;SDS011;56317;27.658;85.326;2022-08-01T14:50:44;19.13;;;8.32;;
69203;SDS011;56317;27.658;85.326;2022-08-01T14:53:11;16.42;;;7.25;;
69203;SDS011;56317;27.658;85.326;2022-08-01T14:55:38;16.15;;;6.47;;
69203;SDS011;56317;27.658;85.326;2022-08-01T14:58:05;19.23;;;8.30;;
69203;SDS011;56317;27.658;85.326;2022-08-01T15:00:32;13.23;;;6.40;;
69203;SDS011;56317;27.658;85.326;2022-08-01T15:03:00;18.65;;;7.50;;
69203;SDS011;56317;27.658;85.326;2022-08-01T15:05:27;15.10;;;6.93;;
69203;SDS011;56317;27.658;85.326;2022-08-01T15:07:55;16.45;;;8.00;;
69203;SDS011;56317;27.658;85.326;2022-08-01T15:10:23;20.33;;;7.80;;
69203;SDS011;56317;27.658;85.326;2022-08-01T15:12:50;18.17;;;7.60;;
69203;SDS011;56317;27.658;85.326;2022-08-01T15:15:17;16.95;;;7.65;;
69203;SDS011;56317;27.658;85.326;2022-08-01T15:17:50;18.10;;;8.98;;
69203;SDS011;56317;27.658;85.326;2022-08-01T15:20:21;17.60;;;8.57;;
69203;SDS011;56317;27.658;85.326;2022-08-01T15:22:55;18.50;;;8.18;;
69203;SDS011;56317;27.658;85.326;2022-08-01T15:25:25;20.17;;;8.57;;
69203;SDS011;56317;27.658;85.326;2022-08-01T15:27:57;17.65;;;8.00;;
69203;SDS011;56317;27.658;85.326;2022-08-01T15:30:24;15.45;;;7.85;;
69203;SDS011;56317;27.658;85.326;2022-08-01T15:32:51;14.82;;;7.45;;
69203;SDS011;56317;27.658;85.326;2022-08-01T15:35:18;20.23;;;8.50;;
69203;SDS011;56317;27.658;85.326;2022-08-01T15:37:46;16.75;;;8.27;;
69203;SDS011;56317;27.658;85.326;2022-08-01T15:40:13;16.33;;;8.02;;
69203;SDS011;56317;27.658;85.326;2022-08-01T15:42:40;15.05;;;8.10;;
69203;SDS011;56317;27.658;85.326;2022-08-01T15:45:07;19.48;;;8.18;;
69203;SDS011;56317;27.658;85.326;2022-08-01T15:47:34;21.45;;;9.23;;
69203;SDS011;56317;27.658;85.326;2022-08-01T15:50:02;15.80;;;8.43;;
69203;SDS011;56317;27.658;85.326;2022-08-01T15:52:32;13.35;;;7.85;;
69203;SDS011;56317;27.658;85.326;2022-08-01T15:54:59;14.10;;;8.40;;
69203;SDS011;56317;27.658;85.326;2022-08-01T15:57:27;12.60;;;7.85;;
69203;SDS011;56317;27.658;85.326;2022-08-01T15:59:54;14.65;;;7.60;;